createdAt,value
2019-02-05T00:02:28.422Z,42.13
2019-02-05T00:04:59.573Z,41.03
2019-02-05T00:07:31.150Z,32.53
2019-02-05T00:10:02.326Z,36.87
2019-02-05T00:12:33.432Z,30.47
2019-02-05T00:15:05.163Z,33.10
2019-02-05T00:17:36.242Z,31.80
2019-02-05T00:20:08.267Z,29.20
2019-02-05T00:22:39.587Z,31.90
2019-02-05T00:25:10.822Z,30.33
2019-02-05T00:27:41.988Z,31.00
2019-02-05T00:30:13.624Z,32.07
2019-02-05T00:32:45.316Z,27.57
2019-02-05T00:35:16.472Z,27.13
2019-02-05T00:37:47.811Z,29.90
2019-02-05T00:40:20.013Z,26.43
2019-02-05T00:42:51.284Z,23.90
2019-02-05T00:45:22.812Z,22.30
2019-02-05T00:47:54.032Z,27.43
2019-02-05T00:50:25.111Z,29.72
2019-02-05T00:52:56.298Z,28.40
2019-02-05T00:55:27.494Z,25.93
2019-02-05T00:57:58.647Z,23.00
2019-02-05T01:00:31.424Z,23.75
2019-02-05T01:03:02.786Z,21.97
2019-02-05T01:05:34.008Z,22.80
2019-02-05T01:08:05.452Z,30.97
2019-02-05T01:10:36.838Z,34.17
2019-02-05T01:13:08.135Z,28.60
2019-02-05T01:15:39.323Z,23.53
2019-02-05T01:18:10.515Z,25.13
2019-02-05T01:20:41.999Z,24.40
2019-02-05T01:23:13.170Z,26.90
2019-02-05T01:25:44.376Z,24.27
2019-02-05T01:28:15.698Z,25.20
2019-02-05T01:30:46.975Z,22.17
2019-02-05T01:33:18.052Z,27.57
2019-02-05T01:35:49.601Z,34.13
2019-02-05T01:38:20.751Z,34.43
2019-02-05T01:40:51.959Z,28.17
2019-02-05T01:43:23.111Z,29.93
2019-02-05T01:45:54.282Z,28.30
2019-02-05T01:48:25.352Z,33.90
2019-02-05T01:50:56.452Z,31.40
2019-02-05T01:53:27.744Z,30.57
2019-02-05T01:55:58.920Z,32.13
2019-02-05T01:58:30.051Z,31.77
2019-02-05T02:01:01.343Z,32.80
2019-02-05T02:03:32.515Z,28.47
2019-02-05T02:06:03.873Z,30.97
2019-02-05T02:08:35.028Z,29.93
2019-02-05T02:11:06.377Z,34.17
2019-02-05T02:13:37.534Z,30.53
2019-02-05T02:16:08.787Z,33.20
2019-02-05T02:18:39.788Z,29.87
2019-02-05T02:21:11.067Z,30.53
2019-02-05T02:23:42.207Z,29.73
2019-02-05T02:26:13.381Z,31.50
2019-02-05T02:28:44.836Z,32.10
2019-02-05T02:31:16.067Z,35.03
2019-02-05T02:33:47.134Z,29.67
2019-02-05T02:36:18.296Z,36.60
2019-02-05T02:38:49.473Z,33.83
2019-02-05T02:41:21.944Z,36.13
2019-02-05T02:43:53.044Z,29.20
2019-02-05T02:46:24.118Z,32.90
2019-02-05T02:48:55.180Z,26.70
2019-02-05T02:51:26.254Z,31.60
2019-02-05T02:53:57.583Z,30.40
2019-02-05T02:56:28.826Z,27.27
2019-02-05T02:58:59.891Z,30.13
2019-02-05T03:01:30.969Z,28.37
2019-02-05T03:04:02.038Z,29.97
2019-02-05T03:06:33.975Z,28.10
2019-02-05T03:09:10.391Z,33.20
2019-02-05T03:11:41.616Z,34.43
2019-02-05T03:14:12.691Z,35.17
2019-02-05T03:16:43.837Z,32.63
2019-02-05T03:19:15.099Z,27.87
2019-02-05T03:21:46.695Z,30.92
2019-02-05T03:24:17.850Z,35.10
2019-02-05T03:26:49.084Z,38.40
2019-02-05T03:29:20.358Z,35.67
2019-02-05T03:31:51.623Z,34.73
2019-02-05T03:34:22.713Z,34.70
2019-02-05T03:36:53.989Z,34.10
2019-02-05T03:39:25.169Z,33.17
2019-02-05T03:41:56.341Z,31.43
2019-02-05T03:44:27.480Z,31.60
2019-02-05T03:46:58.745Z,28.17
2019-02-05T03:49:30.963Z,33.37
2019-02-05T03:52:11.323Z,34.27
2019-02-05T03:55:22.642Z,28.43
2019-02-05T03:58:56.122Z,27.87
2019-02-05T04:01:55.765Z,33.60
2019-02-05T04:05:08.906Z,37.30
2019-02-05T04:08:19.346Z,35.73
2019-02-05T04:11:30.413Z,34.67
2019-02-05T04:14:40.206Z,27.20
2019-02-05T04:17:44.317Z,33.00
2019-02-05T04:20:52.572Z,32.70
2019-02-05T04:23:48.154Z,42.37
2019-02-05T04:26:41.238Z,38.53
2019-02-05T04:29:47.979Z,37.53
2019-02-05T04:32:36.695Z,38.17
2019-02-05T04:35:30.635Z,34.80
2019-02-05T04:38:48.762Z,42.20
2019-02-05T04:42:01.381Z,40.90
2019-02-05T04:44:58.003Z,43.07
2019-02-05T04:48:07.003Z,37.20
2019-02-05T04:51:12.204Z,42.23
2019-02-05T04:54:12.925Z,40.50
2019-02-05T04:56:55.943Z,37.77
2019-02-05T04:59:50.988Z,38.30
2019-02-05T05:02:46.760Z,39.37
2019-02-05T05:05:56.365Z,35.20
2019-02-05T05:08:54.326Z,43.70
2019-02-05T05:11:25.722Z,39.37
2019-02-05T05:13:56.909Z,43.00
2019-02-05T05:16:28.105Z,44.00
2019-02-05T05:18:59.607Z,40.67
2019-02-05T05:21:32.427Z,35.50
2019-02-05T05:24:03.953Z,35.57
2019-02-05T05:26:35.133Z,34.93
2019-02-05T05:29:06.714Z,41.07
2019-02-05T05:31:37.945Z,36.53
2019-02-05T05:34:09.090Z,42.38
2019-02-05T05:36:49.342Z,41.45
2019-02-05T05:39:20.925Z,46.50
2019-02-05T05:41:52.071Z,38.13
2019-02-05T05:44:23.255Z,38.23
2019-02-05T05:46:54.437Z,39.97
2019-02-05T05:49:25.773Z,37.13
2019-02-05T05:51:56.852Z,33.87
2019-02-05T05:54:26.814Z,42.80
2019-02-05T05:56:57.587Z,43.60
2019-02-05T05:59:28.801Z,38.90
2019-02-05T06:01:59.980Z,42.07
2019-02-05T06:04:31.177Z,41.20
2019-02-05T06:07:02.287Z,43.30
2019-02-05T06:09:33.725Z,48.63
2019-02-05T06:12:04.983Z,45.70
2019-02-05T06:14:36.275Z,42.30
2019-02-05T06:17:07.835Z,46.03
2019-02-05T06:19:38.988Z,44.53
2019-02-05T06:22:10.249Z,42.33
2019-02-05T06:24:41.435Z,46.33
2019-02-05T06:27:12.715Z,42.67
2019-02-05T06:29:43.889Z,45.93
2019-02-05T06:32:15.161Z,49.87
2019-02-05T06:34:46.343Z,47.23
2019-02-05T06:37:17.615Z,50.77
2019-02-05T06:39:48.685Z,41.30
2019-02-05T06:42:19.882Z,53.40
2019-02-05T06:44:51.244Z,44.70
2019-02-05T06:47:22.428Z,49.63
2019-02-05T06:49:53.638Z,49.40
2019-02-05T06:52:24.849Z,63.73
2019-02-05T06:54:55.983Z,49.35
2019-02-05T06:57:27.070Z,44.23
2019-02-05T06:59:58.080Z,44.17
2019-02-05T07:02:29.253Z,48.43
2019-02-05T07:05:00.453Z,48.47
2019-02-05T07:07:31.535Z,50.87
2019-02-05T07:10:02.755Z,45.37
2019-02-05T07:12:34.441Z,49.40
2019-02-05T07:15:06.744Z,44.20
2019-02-05T07:17:48.924Z,50.60
2019-02-05T07:20:12.922Z,54.98
2019-02-05T07:22:44.364Z,49.87
2019-02-05T07:25:17.243Z,48.90
2019-02-05T07:27:48.514Z,53.30
2019-02-05T07:30:22.530Z,54.10
2019-02-05T07:32:53.618Z,55.33
2019-02-05T07:35:24.788Z,52.73
2019-02-05T07:37:56.957Z,50.27
2019-02-05T07:40:28.146Z,48.63
2019-02-05T07:42:59.362Z,55.83
2019-02-05T07:45:30.498Z,54.07
2019-02-05T07:48:01.574Z,47.83
2019-02-05T07:50:32.787Z,46.03
2019-02-05T07:53:03.951Z,50.00
2019-02-05T07:55:36.027Z,45.20
2019-02-05T07:58:07.189Z,44.97
2019-02-05T08:00:38.337Z,52.47
2019-02-05T08:03:09.344Z,46.20
2019-02-05T08:05:40.482Z,48.50
2019-02-05T08:08:12.422Z,48.17
2019-02-05T08:10:43.636Z,50.37
2019-02-05T08:13:14.877Z,52.30
2019-02-05T08:15:46.022Z,56.68
2019-02-05T08:18:17.205Z,51.70
2019-02-05T08:20:48.357Z,52.87
2019-02-05T08:23:19.387Z,54.30
2019-02-05T08:25:51.523Z,43.57
2019-02-05T08:28:22.779Z,48.50
2019-02-05T08:30:53.928Z,49.03
2019-02-05T08:33:25.254Z,42.83
2019-02-05T08:35:56.487Z,43.43
2019-02-05T08:38:27.909Z,46.90
2019-02-05T08:40:59.085Z,45.43
2019-02-05T08:43:30.325Z,44.50
2019-02-05T08:46:01.495Z,41.53
2019-02-05T08:48:32.709Z,41.10
2019-02-05T08:51:03.965Z,42.33
2019-02-05T08:53:35.269Z,45.23
2019-02-05T08:56:06.460Z,44.23
2019-02-05T08:58:37.591Z,41.93
2019-02-05T09:01:08.839Z,45.80
2019-02-05T09:03:40.067Z,39.50
2019-02-05T09:06:11.159Z,39.10
2019-02-05T09:08:42.709Z,39.37
2019-02-05T09:11:14.013Z,38.07
2019-02-05T09:13:45.202Z,37.97
2019-02-05T09:16:16.504Z,35.50
2019-02-05T09:18:47.686Z,36.03
2019-02-05T09:21:19.142Z,36.80
2019-02-05T09:23:50.243Z,30.10
2019-02-05T09:26:21.408Z,35.20
2019-02-05T09:28:52.657Z,36.53
2019-02-05T09:31:23.792Z,35.40
2019-02-05T09:33:54.880Z,33.80
2019-02-05T09:36:26.310Z,42.47
2019-02-05T09:38:57.419Z,38.50
2019-02-05T09:41:28.558Z,41.60
2019-02-05T09:44:00.080Z,41.87
2019-02-05T09:46:31.151Z,37.83
2019-02-05T09:49:02.345Z,40.07
2019-02-05T09:51:33.466Z,37.50
2019-02-05T09:54:04.933Z,34.20
2019-02-05T09:56:36.158Z,42.43
2019-02-05T09:59:07.336Z,43.67
2019-02-05T10:01:38.666Z,62.10
2019-02-05T10:04:10.144Z,45.43
2019-02-05T10:06:41.451Z,40.07
2019-02-05T10:09:12.881Z,46.27
2019-02-05T10:11:44.148Z,40.40
2019-02-05T10:14:15.367Z,37.20
2019-02-05T10:16:46.541Z,40.07
2019-02-05T10:19:17.916Z,37.37
2019-02-05T10:21:49.010Z,43.30
2019-02-05T10:24:20.197Z,43.80
2019-02-05T10:26:51.254Z,40.00
2019-02-05T10:29:22.427Z,39.90
2019-02-05T10:31:53.777Z,42.60
2019-02-05T10:34:33.893Z,40.03
2019-02-05T10:36:57.831Z,44.00
2019-02-05T10:39:29.004Z,49.33
2019-02-05T10:42:00.262Z,45.80
2019-02-05T10:44:31.421Z,48.77
2019-02-05T10:47:02.555Z,42.30
2019-02-05T10:49:33.744Z,50.73
2019-02-05T10:52:04.903Z,43.40
2019-02-05T10:54:36.109Z,47.40
2019-02-05T10:57:07.187Z,49.73
2019-02-05T10:59:38.666Z,41.07
2019-02-05T11:02:09.880Z,44.90
2019-02-05T11:04:41.028Z,40.20
2019-02-05T11:07:12.095Z,41.90
2019-02-05T11:09:43.322Z,36.77
2019-02-05T11:12:14.501Z,37.37
2019-02-05T11:14:45.958Z,40.83
2019-02-05T11:17:17.089Z,37.03
2019-02-05T11:19:48.174Z,43.43
2019-02-05T11:22:19.664Z,40.70
2019-02-05T11:24:50.716Z,41.10
2019-02-05T11:27:21.861Z,47.00
2019-02-05T11:29:53.860Z,42.70
2019-02-05T11:32:24.952Z,44.30
2019-02-05T11:34:55.960Z,35.37
2019-02-05T11:37:27.213Z,41.57
2019-02-05T11:39:58.396Z,48.40
2019-02-05T11:42:29.844Z,75.40
2019-02-05T11:45:01.038Z,128.83
2019-02-05T11:47:33.515Z,61.63
2019-02-05T11:50:06.256Z,46.57
2019-02-05T11:52:37.402Z,50.45
2019-02-05T11:55:10.792Z,46.13
2019-02-05T11:57:41.926Z,48.70
2019-02-05T12:00:18.798Z,44.57
2019-02-05T12:02:49.933Z,47.40
2019-02-05T12:05:21.010Z,51.57
2019-02-05T12:07:52.222Z,41.60
2019-02-05T12:10:23.384Z,44.70
2019-02-05T12:12:54.459Z,45.77
2019-02-05T12:15:25.692Z,39.83
2019-02-05T12:17:57.815Z,41.77
2019-02-05T12:20:29.007Z,39.07
2019-02-05T12:23:00.630Z,39.90
2019-02-05T12:25:31.825Z,40.70
2019-02-05T12:28:02.958Z,41.57
2019-02-05T12:30:44.556Z,44.53
2019-02-05T12:33:08.437Z,43.70
2019-02-05T12:35:39.675Z,44.00
2019-02-05T12:38:12.304Z,39.27
2019-02-05T12:40:43.687Z,45.30
2019-02-05T12:43:14.857Z,42.87
2019-02-05T12:45:47.738Z,39.00
2019-02-05T12:48:18.931Z,42.30
2019-02-05T12:50:50.465Z,40.57
2019-02-05T12:53:21.625Z,41.40
2019-02-05T12:55:52.780Z,45.87
2019-02-05T12:58:23.925Z,45.07
2019-02-05T13:00:59.818Z,45.07
2019-02-05T13:03:28.428Z,42.47
2019-02-05T13:05:59.518Z,45.88
2019-02-05T13:08:30.676Z,44.53
2019-02-05T13:11:01.694Z,43.73
2019-02-05T13:13:32.846Z,44.83
2019-02-05T13:16:04.480Z,43.03
2019-02-05T13:18:35.626Z,44.80
2019-02-05T13:21:06.866Z,41.70
2019-02-05T13:23:37.992Z,48.13
2019-02-05T13:26:09.644Z,45.07
2019-02-05T13:28:40.697Z,51.20
2019-02-05T13:31:11.921Z,48.30
2019-02-05T13:33:43.857Z,51.37
2019-02-05T13:36:14.943Z,50.88
2019-02-05T13:38:47.062Z,55.05
2019-02-05T13:41:18.614Z,57.27
2019-02-05T13:43:49.820Z,60.17
2019-02-05T13:46:20.980Z,58.73
2019-02-05T13:48:52.015Z,55.93
2019-02-05T13:51:23.202Z,60.77
2019-02-05T13:53:54.307Z,65.30
2019-02-05T13:56:25.505Z,62.73
2019-02-05T13:58:56.574Z,62.47
2019-02-05T14:01:27.733Z,63.80
2019-02-05T14:03:58.804Z,60.50
2019-02-05T14:06:30.034Z,61.40
2019-02-05T14:09:10.247Z,59.18
2019-02-05T14:11:35.864Z,61.83
2019-02-05T14:14:07.019Z,67.10
2019-02-05T14:16:38.194Z,62.87
2019-02-05T14:19:09.390Z,66.30
2019-02-05T14:21:40.743Z,64.83
2019-02-05T14:24:11.880Z,70.97
2019-02-05T14:26:43.128Z,63.00
2019-02-05T14:29:14.287Z,68.05
2019-02-05T14:31:45.452Z,69.50
2019-02-05T14:34:16.918Z,71.77
2019-02-05T14:36:48.132Z,68.70
2019-02-05T14:39:20.173Z,67.10
2019-02-05T14:41:51.382Z,64.40
2019-02-05T14:44:22.570Z,74.33
2019-02-05T14:46:53.916Z,68.17
2019-02-05T14:49:24.977Z,68.90
2019-02-05T14:51:57.896Z,64.07
2019-02-05T14:54:28.975Z,64.37
2019-02-05T14:57:00.095Z,71.40
2019-02-05T14:59:31.486Z,78.47
2019-02-05T15:02:02.559Z,69.83
2019-02-05T15:04:33.725Z,74.40
2019-02-05T15:07:06.152Z,78.10
2019-02-05T15:09:37.320Z,75.97
2019-02-05T15:12:08.832Z,62.77
2019-02-05T15:14:39.898Z,77.10
2019-02-05T15:17:11.033Z,77.53
2019-02-05T15:19:42.346Z,77.53
2019-02-05T15:22:13.537Z,61.30
2019-02-05T15:24:45.067Z,73.40
2019-02-05T15:27:16.262Z,68.17
2019-02-05T15:29:47.408Z,74.90
2019-02-05T15:32:37.507Z,70.53
2019-02-05T15:35:09.305Z,73.83
2019-02-05T15:37:40.466Z,183.50
2019-02-05T15:40:13.187Z,85.23
2019-02-05T15:42:44.440Z,71.20
2019-02-05T15:45:16.791Z,77.33
2019-02-05T15:47:47.911Z,70.33
2019-02-05T15:50:19.358Z,81.15
2019-02-05T15:52:50.525Z,82.70
2019-02-05T15:55:23.146Z,79.03
2019-02-05T15:57:54.396Z,73.47
2019-02-05T16:00:25.995Z,85.90
2019-02-05T16:02:57.441Z,84.97
2019-02-05T16:05:28.637Z,82.80
2019-02-05T16:08:00.141Z,80.80
2019-02-05T16:10:31.375Z,79.40
2019-02-05T16:13:03.277Z,84.60
2019-02-05T16:15:34.554Z,89.15
2019-02-05T16:18:06.673Z,90.72
2019-02-05T16:20:38.489Z,80.30
2019-02-05T16:23:09.717Z,83.67
2019-02-05T16:25:42.037Z,92.17
2019-02-05T16:28:13.177Z,87.20
2019-02-05T16:30:45.603Z,89.00
2019-02-05T16:33:16.741Z,75.67
2019-02-05T16:35:47.804Z,70.03
2019-02-05T16:38:19.477Z,73.07
2019-02-05T16:40:52.319Z,84.57
2019-02-05T16:43:24.157Z,72.13
2019-02-05T16:45:55.371Z,78.73
2019-02-05T16:48:26.540Z,143.87
2019-02-05T16:50:58.244Z,174.70
2019-02-05T16:53:29.460Z,79.23
2019-02-05T16:56:00.677Z,74.20
2019-02-05T16:58:31.812Z,82.17
2019-02-05T17:01:03.405Z,87.87
2019-02-05T17:03:34.963Z,73.83
2019-02-05T17:06:06.414Z,80.33
2019-02-05T17:08:37.580Z,79.93
2019-02-05T17:11:08.676Z,79.93
2019-02-05T17:13:39.687Z,81.80
2019-02-05T17:16:10.934Z,84.70
2019-02-05T17:18:42.113Z,87.03
2019-02-05T17:21:13.483Z,83.17
2019-02-05T17:23:44.573Z,87.63
2019-02-05T17:26:16.628Z,83.93
2019-02-05T17:28:47.875Z,88.10
2019-02-05T17:31:19.024Z,89.73
2019-02-05T17:33:50.040Z,89.30
2019-02-05T17:36:21.126Z,79.50
2019-02-05T17:38:52.245Z,89.90
2019-02-05T17:41:24.562Z,94.45
2019-02-05T17:43:55.746Z,90.53
2019-02-05T17:46:27.198Z,92.63
2019-02-05T17:48:58.344Z,100.80
2019-02-05T17:51:29.432Z,88.40
2019-02-05T17:54:00.634Z,94.50
2019-02-05T17:56:31.901Z,84.40
2019-02-05T17:59:02.994Z,83.00
2019-02-05T18:01:34.207Z,87.77
2019-02-05T18:04:05.721Z,86.60
2019-02-05T18:06:36.929Z,89.30
2019-02-05T18:09:09.416Z,92.70
2019-02-05T18:11:40.593Z,81.43
2019-02-05T18:14:11.815Z,86.83
2019-02-05T18:16:45.255Z,217.87
2019-02-05T18:19:15.846Z,95.13
2019-02-05T18:21:47.315Z,89.77
2019-02-05T18:24:18.421Z,93.17
2019-02-05T18:26:49.432Z,86.60
2019-02-05T18:29:20.605Z,86.20
2019-02-05T18:31:51.780Z,103.03
2019-02-05T18:34:23.222Z,93.90
2019-02-05T18:36:54.449Z,92.50
2019-02-05T18:39:25.631Z,88.87
2019-02-05T18:41:57.732Z,93.03
2019-02-05T18:44:29.145Z,93.37
2019-02-05T18:47:00.447Z,94.03
2019-02-05T18:49:32.304Z,96.60
2019-02-05T18:52:03.464Z,102.63
2019-02-05T18:54:34.709Z,89.40
2019-02-05T18:57:06.248Z,95.77
2019-02-05T18:59:37.429Z,85.43
2019-02-05T19:02:08.688Z,87.10
2019-02-05T19:04:40.162Z,89.87
2019-02-05T19:07:11.250Z,92.70
2019-02-05T19:09:42.352Z,105.73
2019-02-05T19:12:13.508Z,93.80
2019-02-05T19:14:46.034Z,86.83
2019-02-05T19:17:17.177Z,105.20
2019-02-05T19:19:48.390Z,94.30
2019-02-05T19:22:19.421Z,88.53
2019-02-05T19:24:58.159Z,101.97
2019-02-05T19:27:29.328Z,98.60
2019-02-05T19:30:00.407Z,97.10
2019-02-05T19:32:31.663Z,93.30
2019-02-05T19:35:02.821Z,86.60
2019-02-05T19:37:33.902Z,96.37
2019-02-05T19:40:05.743Z,86.17
2019-02-05T19:42:37.801Z,90.63
2019-02-05T19:45:34.578Z,87.30
2019-02-05T19:48:07.381Z,78.87
2019-02-05T19:50:38.593Z,102.82
2019-02-05T19:53:09.754Z,100.70
2019-02-05T19:55:40.843Z,89.40
2019-02-05T19:58:12.112Z,103.17
2019-02-05T20:00:44.258Z,83.27
2019-02-05T20:03:15.741Z,87.37
2019-02-05T20:05:46.890Z,91.20
2019-02-05T20:08:18.081Z,83.70
2019-02-05T20:10:49.254Z,83.73
2019-02-05T20:13:20.271Z,86.03
2019-02-05T20:15:51.427Z,84.80
2019-02-05T20:18:22.520Z,90.57
2019-02-05T20:20:53.704Z,84.50
2019-02-05T20:23:24.778Z,104.20
2019-02-05T20:25:56.790Z,108.87
2019-02-05T20:28:27.908Z,94.27
2019-02-05T20:30:59.351Z,100.07
2019-02-05T20:33:30.455Z,96.40
2019-02-05T20:36:01.666Z,84.93
2019-02-05T20:38:32.747Z,99.33
2019-02-05T20:41:03.875Z,95.37
2019-02-05T20:43:34.990Z,82.50
2019-02-05T20:46:06.305Z,93.42
2019-02-05T20:48:37.387Z,326.63
2019-02-05T20:51:08.624Z,93.37
2019-02-05T20:53:39.743Z,69.20
2019-02-05T20:56:10.905Z,76.30
2019-02-05T20:58:42.325Z,81.10
2019-02-05T21:01:13.418Z,67.83
2019-02-05T21:03:44.736Z,65.57
2019-02-05T21:06:15.909Z,65.73
2019-02-05T21:08:47.070Z,62.80
2019-02-05T21:11:18.177Z,71.60
2019-02-05T21:13:49.439Z,62.23
2019-02-05T21:16:20.477Z,63.90
2019-02-05T21:18:51.659Z,63.23
2019-02-05T21:21:22.907Z,60.13
2019-02-05T21:23:54.066Z,62.73
2019-02-05T21:26:25.154Z,78.77
2019-02-05T21:28:56.296Z,60.43
2019-02-05T21:31:27.471Z,79.97
2019-02-05T21:33:58.795Z,63.07
2019-02-05T21:36:29.971Z,79.90
2019-02-05T21:39:01.244Z,69.67
2019-02-05T21:41:32.629Z,59.77
2019-02-05T21:44:04.133Z,70.23
2019-02-05T21:46:35.308Z,68.67
2019-02-05T21:49:06.462Z,67.00
2019-02-05T21:51:40.883Z,58.67
2019-02-05T21:54:12.541Z,67.23
2019-02-05T21:56:43.551Z,59.40
2019-02-05T21:59:14.551Z,62.27
2019-02-05T22:01:45.847Z,65.77
2019-02-05T22:04:26.692Z,64.63
2019-02-05T22:06:49.880Z,69.07
2019-02-05T22:09:21.026Z,63.37
2019-02-05T22:11:52.227Z,69.30
2019-02-05T22:14:23.308Z,66.93
2019-02-05T22:16:54.407Z,66.83
2019-02-05T22:19:27.214Z,58.00
2019-02-05T22:21:58.235Z,62.63
2019-02-05T22:24:29.392Z,68.23
2019-02-05T22:27:00.934Z,62.63
2019-02-05T22:29:32.027Z,73.03
2019-02-05T22:32:03.191Z,68.50
2019-02-05T22:34:39.414Z,87.37
2019-02-05T22:37:08.272Z,76.83
2019-02-05T22:39:39.807Z,73.00
2019-02-05T22:42:10.978Z,66.07
2019-02-05T22:44:42.349Z,70.73
2019-02-05T22:47:13.470Z,76.43
2019-02-05T22:49:44.550Z,72.63
2019-02-05T22:52:15.567Z,81.13
2019-02-05T22:54:46.859Z,84.23
2019-02-05T22:57:17.893Z,77.60
2019-02-05T22:59:49.068Z,223.70
2019-02-05T23:02:20.369Z,97.17
2019-02-05T23:05:29.738Z,94.03
2019-02-05T23:08:00.898Z,76.53
2019-02-05T23:10:45.420Z,74.47
2019-02-05T23:13:18.528Z,86.23
2019-02-05T23:15:51.698Z,74.93
2019-02-05T23:18:23.080Z,85.40
2019-02-05T23:20:54.284Z,85.47
2019-02-05T23:23:25.464Z,87.87
2019-02-05T23:25:56.713Z,84.40
2019-02-05T23:28:27.887Z,73.93
2019-02-05T23:30:59.032Z,92.20
2019-02-05T23:33:30.283Z,72.70
2019-02-05T23:36:01.298Z,70.80
2019-02-05T23:38:33.421Z,76.07
2019-02-05T23:41:04.576Z,69.13
2019-02-05T23:43:36.091Z,76.77
2019-02-05T23:46:07.320Z,79.50
2019-02-05T23:48:38.540Z,74.07
2019-02-05T23:51:09.906Z,72.30
2019-02-05T23:53:41.334Z,75.27
2019-02-05T23:56:12.779Z,157.03
2019-02-05T23:58:44.789Z,153.07
